Time;durP1;ratioP1;P1;durP2;ratioP2;P2;SDS_P1;SDS_P2;PMS_P1;PMS_P2;Temp;Humidity;BMP_temperature;BMP_pressure;BME280_temperature;BME280_humidity;BME280_pressure;Samples;Min_cycle;Max_cycle;Signal;HPM_P1;HPM_P2
2023/09/15 00:01:23;;;;;;;9.00;8.10;;;;;;;;;;4940321;28;20042;-79
2023/09/15 00:03:49;;;;;;;10.00;9.00;;;;;;;;;;4939840;28;20092;-79
2023/09/15 00:06:18;;;;;;;8.55;7.72;;;;;;;;;;4940443;28;20035;-79
2023/09/15 00:08:44;;;;;;;12.55;9.18;;;;;;;;;;4939147;28;20081;-79
2023/09/15 00:11:15;;;;;;;10.07;8.60;;;;;;;;;;4956870;28;20042;-80
2023/09/15 00:13:44;;;;;;;10.35;9.48;;;;;;;;;;4956913;28;20034;-79
2023/09/15 00:16:10;;;;;;;10.57;8.40;;;;;;;;;;4924348;28;20046;-81
2023/09/15 00:18:36;;;;;;;10.43;8.82;;;;;;;;;;4923926;28;20055;-81
2023/09/15 00:21:05;;;;;;;9.68;8.95;;;;;;;;;;4939365;28;20038;-81
2023/09/15 00:23:31;;;;;;;10.75;8.70;;;;;;;;;;4939841;28;20047;-79
2023/09/15 00:26:01;;;;;;;9.00;8.30;;;;;;;;;;4939546;28;20043;-80
2023/09/15 00:28:29;;;;;;;9.07;8.18;;;;;;;;;;4971276;28;20047;-80
2023/09/15 00:30:57;;;;;;;10.57;8.48;;;;;;;;;;4939354;28;20039;-80
2023/09/15 00:33:23;;;;;;;9.02;8.02;;;;;;;;;;4923432;28;20477;-80
2023/09/15 00:36:17;;;;;;;10.50;8.18;;;;;;;;;;4949027;28;20050;-80
2023/09/15 00:38:43;;;;;;;8.45;7.75;;;;;;;;;;4970845;28;20058;-78
2023/09/15 00:41:09;;;;;;;13.50;9.07;;;;;;;;;;4923554;28;20047;-80
2023/09/15 00:43:44;;;;;;;14.55;9.18;;;;;;;;;;4954821;28;20515;-81
2023/09/15 00:46:35;;;;;;;14.15;8.88;;;;;;;;;;4929660;28;20159;-80
2023/09/15 00:49:05;;;;;;;16.67;9.25;;;;;;;;;;4939066;28;20046;-80
2023/09/15 00:51:32;;;;;;;15.30;9.80;;;;;;;;;;4923493;28;20039;-79
2023/09/15 00:53:58;;;;;;;18.30;9.80;;;;;;;;;;4940798;28;20108;-79
2023/09/15 00:56:24;;;;;;;19.60;10.75;;;;;;;;;;4948358;28;20573;-80
2023/09/15 00:58:50;;;;;;;13.90;12.48;;;;;;;;;;4933675;28;20046;-79
2023/09/15 01:01:17;;;;;;;12.88;10.02;;;;;;;;;;4944465;28;20057;-79
2023/09/15 01:03:45;;;;;;;12.07;10.85;;;;;;;;;;4939262;28;20048;-79
2023/09/15 01:06:11;;;;;;;10.98;9.23;;;;;;;;;;4939366;28;20043;-80
2023/09/15 01:08:38;;;;;;;9.18;8.13;;;;;;;;;;4938659;28;20050;-79
2023/09/15 01:11:07;;;;;;;10.15;7.97;;;;;;;;;;4938684;28;20138;-81
2023/09/15 01:13:33;;;;;;;10.40;8.25;;;;;;;;;;4938920;28;20043;-80
2023/09/15 01:16:03;;;;;;;15.95;7.97;;;;;;;;;;4924001;28;20045;-81
2023/09/15 01:18:45;;;;;;;10.33;9.33;;;;;;;;;;4955891;28;20407;-82
2023/09/15 01:21:27;;;;;;;9.98;8.93;;;;;;;;;;4940984;28;20062;-82
2023/09/15 01:23:56;;;;;;;14.40;8.80;;;;;;;;;;4970936;28;20038;-82
2023/09/15 01:26:33;;;;;;;13.68;9.27;;;;;;;;;;4954248;28;20574;-81
2023/09/15 01:29:15;;;;;;;12.27;9.55;;;;;;;;;;4940218;28;20453;-82
2023/09/15 01:31:41;;;;;;;13.00;9.65;;;;;;;;;;4970876;28;20494;-82
2023/09/15 01:34:13;;;;;;;11.15;9.93;;;;;;;;;;4923658;28;20047;-81
2023/09/15 01:36:39;;;;;;;11.38;10.18;;;;;;;;;;4906714;28;20043;-81
2023/09/15 01:39:05;;;;;;;12.50;11.18;;;;;;;;;;4970782;28;20058;-81
2023/09/15 01:41:35;;;;;;;15.00;10.73;;;;;;;;;;4938213;28;20035;-80
2023/09/15 01:44:01;;;;;;;11.82;10.82;;;;;;;;;;4939432;28;20541;-82
2023/09/15 01:46:28;;;;;;;23.45;10.00;;;;;;;;;;4955326;28;20039;-81
2023/09/15 01:48:58;;;;;;;11.45;9.65;;;;;;;;;;4954747;28;20130;-82
2023/09/15 01:51:25;;;;;;;14.57;8.45;;;;;;;;;;4938887;28;20090;-81
2023/09/15 01:53:52;;;;;;;9.73;8.63;;;;;;;;;;4938608;28;20043;-82
2023/09/15 01:56:23;;;;;;;9.52;8.60;;;;;;;;;;4954052;28;20560;-81
2023/09/15 01:58:49;;;;;;;15.02;9.70;;;;;;;;;;4973189;28;20058;-80
2023/09/15 02:01:28;;;;;;;10.80;9.75;;;;;;;;;;4973985;28;20039;-80
2023/09/15 02:03:54;;;;;;;11.18;10.23;;;;;;;;;;4992283;28;20144;-79
2023/09/15 02:06:22;;;;;;;11.57;9.00;;;;;;;;;;4929447;28;20038;-80
2023/09/15 02:09:14;;;;;;;15.20;9.82;;;;;;;;;;4951312;28;20054;-79
2023/09/15 02:11:39;;;;;;;13.57;10.05;;;;;;;;;;4944390;28;20065;-81
2023/09/15 02:14:06;;;;;;;12.18;10.75;;;;;;;;;;4929295;28;20050;-81
2023/09/15 02:16:32;;;;;;;17.10;11.88;;;;;;;;;;4961079;28;20049;-80
2023/09/15 02:19:00;;;;;;;11.43;10.00;;;;;;;;;;4945122;28;20462;-81
2023/09/15 02:21:26;;;;;;;8.88;8.07;;;;;;;;;;4929627;28;20077;-81
2023/09/15 02:23:53;;;;;;;96.82;14.18;;;;;;;;;;4961222;28;20042;-81
2023/09/15 02:26:21;;;;;;;252.45;19.33;;;;;;;;;;4994318;28;20046;-81
2023/09/15 02:28:50;;;;;;;395.08;25.02;;;;;;;;;;4930015;28;20053;-82
2023/09/15 02:31:22;;;;;;;15.45;13.00;;;;;;;;;;4962484;28;20046;-81
2023/09/15 02:33:57;;;;;;;75.03;14.75;;;;;;;;;;4930564;28;20042;-80
2023/09/15 02:36:23;;;;;;;23.42;14.27;;;;;;;;;;4929000;28;20672;-81
2023/09/15 02:38:50;;;;;;;12.98;11.57;;;;;;;;;;4928523;28;20077;-81
2023/09/15 02:41:18;;;;;;;15.88;10.90;;;;;;;;;;4946148;28;20065;-82
2023/09/15 02:43:45;;;;;;;13.35;9.85;;;;;;;;;;4961083;28;20042;-82
2023/09/15 02:46:12;;;;;;;14.32;10.75;;;;;;;;;;4961235;28;20129;-81
2023/09/15 02:48:38;;;;;;;15.73;11.95;;;;;;;;;;4929498;28;20046;-82
2023/09/15 02:51:04;;;;;;;15.25;10.13;;;;;;;;;;4944636;28;20507;-82
2023/09/15 02:53:34;;;;;;;3.65;3.35;;;;;;;;;;4946979;28;20046;-82
2023/09/15 02:56:02;;;;;;;11.07;9.65;;;;;;;;;;4960679;28;20124;-82
2023/09/15 02:58:32;;;;;;;11.18;9.82;;;;;;;;;;4960534;28;20058;-79
2023/09/15 03:00:58;;;;;;;12.88;9.95;;;;;;;;;;4953604;28;20045;-81
2023/09/15 03:03:24;;;;;;;16.85;10.23;;;;;;;;;;4956693;28;20046;-78
2023/09/15 03:06:03;;;;;;;11.52;10.43;;;;;;;;;;4955457;28;20129;-81
2023/09/15 03:08:38;;;;;;;13.32;10.68;;;;;;;;;;4959012;28;20399;-81
2023/09/15 03:11:10;;;;;;;16.88;11.55;;;;;;;;;;4958032;28;20035;-81
2023/09/15 03:13:38;;;;;;;17.75;11.65;;;;;;;;;;4940866;28;20058;-82
2023/09/15 03:16:07;;;;;;;19.55;11.88;;;;;;;;;;4927888;28;20130;-81
2023/09/15 03:18:34;;;;;;;13.70;10.90;;;;;;;;;;4940933;28;20137;-80
2023/09/15 03:21:08;;;;;;;17.52;11.30;;;;;;;;;;4957216;28;20053;-81
2023/09/15 03:23:34;;;;;;;15.15;10.63;;;;;;;;;;4940085;28;20054;-80
2023/09/15 03:26:06;;;;;;;17.92;11.40;;;;;;;;;;4939962;28;20034;-81
2023/09/15 03:28:35;;;;;;;18.30;11.20;;;;;;;;;;4925085;28;20051;-80
2023/09/15 03:31:03;;;;;;;21.70;14.27;;;;;;;;;;4935634;29;20591;-80
2023/09/15 03:33:30;;;;;;;13.45;11.23;;;;;;;;;;4936274;29;20534;-80
2023/09/15 03:36:00;;;;;;;15.32;10.55;;;;;;;;;;4903957;29;20515;-81
2023/09/15 03:38:26;;;;;;;19.33;15.93;;;;;;;;;;4935877;29;20090;-80
2023/09/15 03:40:52;;;;;;;22.73;14.45;;;;;;;;;;4903661;29;20129;-80
2023/09/15 03:43:19;;;;;;;21.73;15.73;;;;;;;;;;4935324;29;20078;-80
2023/09/15 03:45:46;;;;;;;18.77;13.07;;;;;;;;;;4903550;29;20045;-80
2023/09/15 03:48:13;;;;;;;13.23;12.05;;;;;;;;;;4919416;29;20058;-78
2023/09/15 03:50:39;;;;;;;15.70;12.45;;;;;;;;;;4919193;29;20066;-79
2023/09/15 03:53:09;;;;;;;16.58;11.27;;;;;;;;;;4903693;29;20054;-79
2023/09/15 03:55:36;;;;;;;12.40;11.18;;;;;;;;;;4950701;28;20113;-79
2023/09/15 03:58:08;;;;;;;14.93;10.25;;;;;;;;;;4889830;29;20051;-78
2023/09/15 04:00:36;;;;;;;13.32;11.73;;;;;;;;;;4920070;29;20035;-78
2023/09/15 04:03:04;;;;;;;14.73;11.80;;;;;;;;;;4940196;28;20530;-79
2023/09/15 04:05:38;;;;;;;12.73;11.02;;;;;;;;;;4929142;28;20045;-80
2023/09/15 04:08:09;;;;;;;16.92;10.85;;;;;;;;;;4943089;28;20050;-80
2023/09/15 04:10:38;;;;;;;13.15;11.88;;;;;;;;;;4974746;28;20064;-80
2023/09/15 04:13:06;;;;;;;16.63;12.73;;;;;;;;;;4958674;28;20062;-78
2023/09/15 04:15:33;;;;;;;19.92;13.27;;;;;;;;;;4941956;28;20100;-78
2023/09/15 04:17:59;;;;;;;17.73;12.38;;;;;;;;;;4975076;28;20144;-80
2023/09/15 04:20:28;;;;;;;20.10;11.75;;;;;;;;;;4958497;28;20090;-79
2023/09/15 04:25:53;;;;;;;14.38;11.38;;;;;;;;;;4957706;28;20042;-79
2023/09/15 04:28:20;;;;;;;13.07;11.63;;;;;;;;;;4974888;28;20189;-81
2023/09/15 04:33:35;;;;;;;16.20;12.43;;;;;;;;;;4954455;28;20043;-79
2023/09/15 04:36:03;;;;;;;12.90;11.48;;;;;;;;;;4938800;28;20048;-79
2023/09/15 04:38:32;;;;;;;;;;;;;;;;;;4954898;28;20529;-78
2023/09/15 04:40:58;;;;;;;15.68;12.05;;;;;;;;;;4922596;28;19914;-79
2023/09/15 04:43:25;;;;;;;23.63;13.85;;;;;;;;;;4952102;28;20101;-77
2023/09/15 04:45:57;;;;;;;18.27;14.80;;;;;;;;;;4928038;28;20542;-78
2023/09/15 04:48:23;;;;;;;23.42;17.73;;;;;;;;;;4925569;28;20039;-80
2023/09/15 04:50:49;;;;;;;18.00;11.82;;;;;;;;;;4938070;28;20130;-82
2023/09/15 04:53:16;;;;;;;13.45;11.13;;;;;;;;;;4923343;28;20054;-82
2023/09/15 04:55:43;;;;;;;18.05;11.30;;;;;;;;;;4946033;28;20059;-81
2023/09/15 04:58:11;;;;;;;18.88;10.65;;;;;;;;;;4938461;28;20055;-81
2023/09/15 05:00:38;;;;;;;11.15;10.05;;;;;;;;;;4943359;28;20046;-81
2023/09/15 05:03:04;;;;;;;13.30;10.02;;;;;;;;;;4941438;28;20042;-81
2023/09/15 05:05:31;;;;;;;13.73;9.48;;;;;;;;;;4938017;28;20043;-80
2023/09/15 05:07:58;;;;;;;13.48;10.48;;;;;;;;;;4943610;28;20138;-84
2023/09/15 05:10:25;;;;;;;19.75;10.90;;;;;;;;;;4939798;28;20042;-82
2023/09/15 05:13:16;;;;;;;14.32;10.63;;;;;;;;;;4969707;28;20537;-82
2023/09/15 05:15:42;;;;;;;14.40;12.82;;;;;;;;;;4944070;28;20034;-78
2023/09/15 05:18:08;;;;;;;22.65;12.25;;;;;;;;;;4940864;28;20108;-78
2023/09/15 05:20:36;;;;;;;23.77;15.48;;;;;;;;;;4973278;28;20579;-81
2023/09/15 05:23:03;;;;;;;26.20;15.10;;;;;;;;;;4925679;28;20142;-77
2023/09/15 05:26:21;;;;;;;20.10;12.38;;;;;;;;;;4953414;28;20117;-78
2023/09/15 05:28:49;;;;;;;15.10;13.25;;;;;;;;;;4930234;28;20034;-78
2023/09/15 05:31:17;;;;;;;16.30;12.27;;;;;;;;;;4944765;28;20034;-79
2023/09/15 05:33:43;;;;;;;21.95;12.13;;;;;;;;;;4939970;28;20125;-77
2023/09/15 05:36:09;;;;;;;15.38;12.15;;;;;;;;;;4940244;28;20134;-76
2023/09/15 05:38:35;;;;;;;20.42;13.18;;;;;;;;;;4936160;28;20047;-77
2023/09/15 05:41:01;;;;;;;18.67;11.80;;;;;;;;;;4925110;28;20100;-78
2023/09/15 05:43:27;;;;;;;20.27;13.40;;;;;;;;;;4956525;28;20081;-79
2023/09/15 05:45:56;;;;;;;21.55;11.57;;;;;;;;;;4939881;28;20129;-78
2023/09/15 05:48:23;;;;;;;15.07;10.65;;;;;;;;;;4940231;28;20042;-76
2023/09/15 05:50:50;;;;;;;13.18;10.95;;;;;;;;;;4939976;28;20053;-77
2023/09/15 05:53:16;;;;;;;16.17;11.35;;;;;;;;;;4940486;28;20056;-77
2023/09/15 05:55:42;;;;;;;23.05;12.48;;;;;;;;;;4937783;28;20051;-80
2023/09/15 05:58:09;;;;;;;16.35;12.43;;;;;;;;;;4953394;28;20057;-77
2023/09/15 06:00:35;;;;;;;16.42;12.60;;;;;;;;;;4946437;28;20046;-81
2023/09/15 06:03:02;;;;;;;17.10;12.93;;;;;;;;;;4945606;28;20054;-78
2023/09/15 06:05:29;;;;;;;25.38;13.68;;;;;;;;;;4940965;28;20132;-82
2023/09/15 06:08:03;;;;;;;19.13;12.13;;;;;;;;;;4966413;28;20039;-79
2023/09/15 06:10:31;;;;;;;17.73;12.32;;;;;;;;;;4952104;28;20042;-81
2023/09/15 06:12:59;;;;;;;18.80;12.55;;;;;;;;;;4929999;29;20050;-79
2023/09/15 06:15:25;;;;;;;15.05;12.05;;;;;;;;;;4941406;28;20053;-74
2023/09/15 06:17:51;;;;;;;20.20;12.98;;;;;;;;;;4940664;28;20045;-76
2023/09/15 06:20:17;;;;;;;15.55;13.13;;;;;;;;;;4959544;28;20193;-73
2023/09/15 06:22:45;;;;;;;16.90;10.68;;;;;;;;;;4991436;28;20545;-72
2023/09/15 06:25:11;;;;;;;18.98;11.00;;;;;;;;;;4975806;28;20046;-74
2023/09/15 06:27:37;;;;;;;10.95;9.95;;;;;;;;;;4937851;28;20044;-75
2023/09/15 06:30:03;;;;;;;16.17;10.25;;;;;;;;;;4941527;28;20050;-75
2023/09/15 06:32:31;;;;;;;15.15;9.77;;;;;;;;;;4954982;28;20038;-77
2023/09/15 06:34:57;;;;;;;12.60;9.23;;;;;;;;;;4947467;28;20137;-78
2023/09/15 06:37:29;;;;;;;12.68;8.88;;;;;;;;;;4954930;28;20043;-77
2023/09/15 06:40:06;;;;;;;10.32;9.25;;;;;;;;;;4953860;28;20097;-80
2023/09/15 06:42:41;;;;;;;12.05;8.88;;;;;;;;;;4977167;28;20494;-76
2023/09/15 06:45:07;;;;;;;11.18;8.88;;;;;;;;;;4939665;28;20042;-76
2023/09/15 06:47:33;;;;;;;17.10;8.48;;;;;;;;;;4953939;28;20046;-76
2023/09/15 06:49:59;;;;;;;12.68;8.50;;;;;;;;;;4926449;28;20060;-76
2023/09/15 06:52:25;;;;;;;12.98;8.20;;;;;;;;;;4959257;28;20479;-76
2023/09/15 06:54:51;;;;;;;14.77;7.60;;;;;;;;;;4953507;28;20042;-77
2023/09/15 06:57:17;;;;;;;8.15;7.35;;;;;;;;;;4924207;28;20423;-77
2023/09/15 06:59:44;;;;;;;13.32;7.68;;;;;;;;;;4939600;28;20054;-76
2023/09/15 07:02:10;;;;;;;8.98;7.07;;;;;;;;;;4939437;28;20035;-75
2023/09/15 07:04:36;;;;;;;10.25;6.90;;;;;;;;;;4970486;28;20141;-74
2023/09/15 07:07:02;;;;;;;12.40;6.07;;;;;;;;;;4936920;28;20027;-74
2023/09/15 07:09:29;;;;;;;8.05;6.55;;;;;;;;;;4971605;28;20070;-75
2023/09/15 07:12:01;;;;;;;13.90;6.22;;;;;;;;;;4955255;28;20137;-75
2023/09/15 07:14:27;;;;;;;8.52;6.22;;;;;;;;;;4955486;28;20479;-75
2023/09/15 07:16:56;;;;;;;6.65;5.88;;;;;;;;;;4937467;28;20101;-75
2023/09/15 07:19:22;;;;;;;7.78;5.25;;;;;;;;;;4939496;28;20129;-74
2023/09/15 07:21:48;;;;;;;6.53;4.95;;;;;;;;;;4952377;28;20045;-72
2023/09/15 07:24:14;;;;;;;7.95;4.70;;;;;;;;;;4939446;28;20110;-77
2023/09/15 07:26:41;;;;;;;6.35;4.95;;;;;;;;;;4919516;29;20419;-74
2023/09/15 07:29:07;;;;;;;5.50;5.10;;;;;;;;;;4945789;28;20745;-74
2023/09/15 07:31:34;;;;;;;3.95;3.55;;;;;;;;;;4943085;28;20053;-74
2023/09/15 07:34:01;;;;;;;6.00;4.18;;;;;;;;;;4921704;28;20039;-74
2023/09/15 07:36:27;;;;;;;4.72;4.40;;;;;;;;;;4927567;28;20047;-75
2023/09/15 07:38:53;;;;;;;4.75;4.25;;;;;;;;;;4950659;28;20051;-75
2023/09/15 07:41:19;;;;;;;4.00;3.70;;;;;;;;;;4954457;28;20048;-74
2023/09/15 07:43:45;;;;;;;12.52;4.10;;;;;;;;;;4946455;29;20047;-75
2023/09/15 07:46:15;;;;;;;6.82;3.95;;;;;;;;;;4952675;28;20043;-74
2023/09/15 07:48:44;;;;;;;4.78;3.85;;;;;;;;;;4931685;29;20039;-75
2023/09/15 07:51:14;;;;;;;5.15;3.55;;;;;;;;;;4936066;29;20054;-73
2023/09/15 07:53:41;;;;;;;4.13;3.63;;;;;;;;;;4951692;29;20039;-75
2023/09/15 07:56:08;;;;;;;7.15;4.20;;;;;;;;;;4933339;28;20103;-75
2023/09/15 07:58:34;;;;;;;4.22;3.30;;;;;;;;;;4938449;28;20051;-76
2023/09/15 08:01:07;;;;;;;3.90;3.60;;;;;;;;;;4950874;28;20050;-76
2023/09/15 08:03:33;;;;;;;5.43;3.45;;;;;;;;;;4957633;28;20050;-75
2023/09/15 08:06:00;;;;;;;3.78;3.55;;;;;;;;;;4953863;28;20049;-78
2023/09/15 08:08:27;;;;;;;4.03;3.70;;;;;;;;;;4938561;28;20051;-77
2023/09/15 08:11:02;;;;;;;7.05;3.50;;;;;;;;;;4940709;28;20419;-79
2023/09/15 08:13:28;;;;;;;3.30;3.00;;;;;;;;;;4938277;28;20061;-78
2023/09/15 08:15:55;;;;;;;5.65;3.47;;;;;;;;;;4938014;28;20050;-78
2023/09/15 08:18:21;;;;;;;3.97;3.67;;;;;;;;;;4954336;28;20051;-77
2023/09/15 08:20:49;;;;;;;3.60;3.30;;;;;;;;;;4954289;28;20539;-78
2023/09/15 08:23:15;;;;;;;5.45;3.67;;;;;;;;;;4951526;28;20038;-78
2023/09/15 08:25:41;;;;;;;3.75;3.55;;;;;;;;;;4909974;29;20039;-78
2023/09/15 08:28:14;;;;;;;3.50;3.30;;;;;;;;;;4947473;28;20054;-77
2023/09/15 08:30:46;;;;;;;5.13;3.80;;;;;;;;;;4951016;28;20129;-78
2023/09/15 08:33:12;;;;;;;5.00;3.83;;;;;;;;;;4922410;28;20195;-76
2023/09/15 08:35:40;;;;;;;5.47;3.60;;;;;;;;;;4986591;28;20062;-76
2023/09/15 08:38:06;;;;;;;10.30;4.45;;;;;;;;;;4937463;28;20047;-75
2023/09/15 08:40:38;;;;;;;9.57;4.05;;;;;;;;;;4935067;28;20141;-75
2023/09/15 08:43:05;;;;;;;7.43;4.50;;;;;;;;;;4919779;28;20089;-76
2023/09/15 08:45:33;;;;;;;5.57;4.20;;;;;;;;;;4921267;28;20043;-75
2023/09/15 08:47:59;;;;;;;5.32;4.10;;;;;;;;;;4920533;28;20077;-76
2023/09/15 08:50:26;;;;;;;3.85;3.55;;;;;;;;;;4922988;28;20815;-75
2023/09/15 08:52:52;;;;;;;5.28;3.75;;;;;;;;;;4956530;28;20038;-76
2023/09/15 08:55:18;;;;;;;7.53;3.50;;;;;;;;;;4972863;28;20502;-73
2023/09/15 08:57:44;;;;;;;4.65;3.60;;;;;;;;;;4956702;28;20133;-75
2023/09/15 09:00:12;;;;;;;4.22;3.88;;;;;;;;;;4956744;28;20053;-75
2023/09/15 09:02:39;;;;;;;3.78;3.30;;;;;;;;;;4936426;28;20043;-76
2023/09/15 09:05:06;;;;;;;4.22;3.47;;;;;;;;;;4950537;28;20039;-75
2023/09/15 09:07:32;;;;;;;3.72;3.40;;;;;;;;;;4950784;29;20046;-75
2023/09/15 09:10:01;;;;;;;4.68;3.40;;;;;;;;;;4967420;28;20051;-76
2023/09/15 09:12:27;;;;;;;3.72;3.42;;;;;;;;;;4943684;29;20110;-75
2023/09/15 09:14:56;;;;;;;3.13;2.92;;;;;;;;;;4977597;28;20054;-74
2023/09/15 09:17:22;;;;;;;3.70;3.40;;;;;;;;;;4954825;29;20768;-75
2023/09/15 09:19:51;;;;;;;3.40;3.20;;;;;;;;;;4950085;29;20202;-75
2023/09/15 09:22:17;;;;;;;5.93;3.10;;;;;;;;;;4950781;29;20141;-75
2023/09/15 09:24:45;;;;;;;3.30;3.10;;;;;;;;;;4966343;28;20419;-75
2023/09/15 09:27:11;;;;;;;3.10;2.90;;;;;;;;;;4936885;29;20142;-75
2023/09/15 09:29:38;;;;;;;6.93;3.30;;;;;;;;;;4934300;29;20055;-75
2023/09/15 09:32:04;;;;;;;3.35;3.15;;;;;;;;;;4918130;29;20094;-75
2023/09/15 09:34:30;;;;;;;3.45;3.20;;;;;;;;;;4934059;29;20101;-75
2023/09/15 09:37:04;;;;;;;3.80;3.60;;;;;;;;;;4969095;28;20042;-75
2023/09/15 09:39:30;;;;;;;3.38;2.95;;;;;;;;;;4953122;28;20122;-75
2023/09/15 09:41:57;;;;;;;3.50;3.30;;;;;;;;;;4953169;28;20287;-75
2023/09/15 09:44:24;;;;;;;12.48;2.88;;;;;;;;;;4953114;28;20142;-76
2023/09/15 09:46:52;;;;;;;3.70;2.78;;;;;;;;;;4953609;28;20038;-75
2023/09/15 09:49:18;;;;;;;3.30;3.00;;;;;;;;;;4937561;28;20507;-75
2023/09/15 09:51:44;;;;;;;3.45;3.15;;;;;;;;;;4937768;28;20514;-75
2023/09/15 09:54:10;;;;;;;3.30;3.10;;;;;;;;;;4969118;28;20046;-76
2023/09/15 09:56:37;;;;;;;5.00;3.00;;;;;;;;;;4937636;28;20372;-75
2023/09/15 09:59:08;;;;;;;3.50;3.20;;;;;;;;;;4936306;28;20062;-74
2023/09/15 10:01:34;;;;;;;;;;;;;;;;;;4970096;28;20034;-74
2023/09/15 10:04:11;;;;;;;3.38;3.10;;;;;;;;;;4982714;28;19916;-76
2023/09/15 10:06:37;;;;;;;7.53;3.42;;;;;;;;;;4951307;28;20109;-77
2023/09/15 10:09:06;;;;;;;5.70;4.13;;;;;;;;;;4918631;28;20047;-77
2023/09/15 10:11:33;;;;;;;3.38;3.17;;;;;;;;;;4936085;28;20046;-76
2023/09/15 10:14:06;;;;;;;3.45;3.15;;;;;;;;;;4967257;28;20051;-76
2023/09/15 10:16:32;;;;;;;3.25;2.97;;;;;;;;;;4935734;28;20035;-76
2023/09/15 10:19:00;;;;;;;3.58;3.28;;;;;;;;;;4935597;28;20059;-77
2023/09/15 10:21:26;;;;;;;3.15;2.95;;;;;;;;;;4937659;28;20035;-77
2023/09/15 10:24:08;;;;;;;3.30;3.10;;;;;;;;;;4938768;28;20422;-76
2023/09/15 10:26:34;;;;;;;3.50;3.20;;;;;;;;;;4941502;28;20038;-76
2023/09/15 10:29:01;;;;;;;3.50;2.85;;;;;;;;;;4940370;28;20404;-76
2023/09/15 10:31:28;;;;;;;4.15;3.50;;;;;;;;;;4973080;28;20138;-76
2023/09/15 10:33:54;;;;;;;3.83;3.53;;;;;;;;;;4940878;28;20097;-75
2023/09/15 10:36:24;;;;;;;3.20;3.00;;;;;;;;;;4941592;28;20053;-76
2023/09/15 10:38:52;;;;;;;3.47;3.17;;;;;;;;;;4956645;28;20050;-77
2023/09/15 10:41:28;;;;;;;3.80;3.47;;;;;;;;;;4957576;28;20046;-76
2023/09/15 10:43:55;;;;;;;3.22;3.03;;;;;;;;;;4940505;28;20050;-76
2023/09/15 10:46:21;;;;;;;4.25;3.53;;;;;;;;;;4940744;28;20039;-76
2023/09/15 10:48:47;;;;;;;5.35;2.90;;;;;;;;;;4940780;28;20058;-77
2023/09/15 10:51:22;;;;;;;3.65;3.35;;;;;;;;;;4940502;28;20042;-76
2023/09/15 10:53:49;;;;;;;8.98;4.00;;;;;;;;;;4941314;28;20050;-76
2023/09/15 10:56:16;;;;;;;3.88;3.58;;;;;;;;;;4940379;28;20059;-76
2023/09/15 10:58:43;;;;;;;3.20;3.00;;;;;;;;;;4940670;28;20066;-76
2023/09/15 11:01:10;;;;;;;3.38;3.08;;;;;;;;;;4973588;28;20493;-77
2023/09/15 11:03:40;;;;;;;3.25;3.05;;;;;;;;;;4942293;28;20043;-76
2023/09/15 11:06:08;;;;;;;5.47;3.20;;;;;;;;;;4941628;28;20043;-77
2023/09/15 11:08:38;;;;;;;3.50;3.20;;;;;;;;;;4941955;28;20073;-76
2023/09/15 11:11:07;;;;;;;3.38;3.17;;;;;;;;;;4941576;28;20035;-76
2023/09/15 11:13:33;;;;;;;3.40;3.20;;;;;;;;;;4941836;28;20078;-76
2023/09/15 11:16:00;;;;;;;4.00;3.70;;;;;;;;;;4941192;28;20418;-76
2023/09/15 11:18:26;;;;;;;4.20;3.80;;;;;;;;;;4941153;28;20050;-76
2023/09/15 11:20:54;;;;;;;3.40;3.20;;;;;;;;;;4957119;28;20042;-76
2023/09/15 11:23:26;;;;;;;3.22;3.03;;;;;;;;;;4956671;28;20046;-77
2023/09/15 11:26:01;;;;;;;3.28;3.08;;;;;;;;;;4940681;28;20500;-76
2023/09/15 11:28:30;;;;;;;3.50;3.20;;;;;;;;;;4937308;29;20650;-75
2023/09/15 11:30:56;;;;;;;3.25;3.05;;;;;;;;;;4921014;29;20129;-76
2023/09/15 11:33:22;;;;;;;3.72;3.42;;;;;;;;;;4953248;28;20039;-76
2023/09/15 11:35:49;;;;;;;5.90;3.40;;;;;;;;;;4937751;29;20051;-76
2023/09/15 11:38:15;;;;;;;4.00;3.65;;;;;;;;;;4920863;29;20059;-76
2023/09/15 11:40:47;;;;;;;3.33;3.13;;;;;;;;;;4936761;29;20039;-76
2023/09/15 11:43:22;;;;;;;3.58;3.08;;;;;;;;;;4952424;29;20151;-76
2023/09/15 11:45:48;;;;;;;3.75;3.38;;;;;;;;;;4936533;28;20098;-76
2023/09/15 11:48:14;;;;;;;4.85;3.33;;;;;;;;;;4936191;28;20054;-76
2023/09/15 11:50:41;;;;;;;4.10;3.20;;;;;;;;;;4920609;29;20411;-76
2023/09/15 11:53:07;;;;;;;7.70;3.50;;;;;;;;;;4952046;28;20050;-76
2023/09/15 11:55:33;;;;;;;4.07;3.53;;;;;;;;;;4936179;29;20049;-76
2023/09/15 11:57:59;;;;;;;3.60;3.40;;;;;;;;;;4936257;29;20079;-76
2023/09/15 12:00:30;;;;;;;4.43;3.50;;;;;;;;;;4920573;29;20133;-76
2023/09/15 12:02:56;;;;;;;7.10;3.40;;;;;;;;;;4920786;29;20051;-76
2023/09/15 12:05:23;;;;;;;3.70;3.40;;;;;;;;;;4936483;29;20130;-76
2023/09/15 12:07:49;;;;;;;3.70;3.50;;;;;;;;;;4936243;29;20050;-76
2023/09/15 12:10:16;;;;;;;7.13;3.85;;;;;;;;;;4920975;29;20043;-76
2023/09/15 12:12:42;;;;;;;7.25;3.55;;;;;;;;;;4954962;29;20051;-76
2023/09/15 12:15:09;;;;;;;3.60;3.30;;;;;;;;;;4945319;28;20792;-77
2023/09/15 12:17:35;;;;;;;5.75;3.78;;;;;;;;;;4943170;29;20035;-76
2023/09/15 12:20:04;;;;;;;4.93;3.65;;;;;;;;;;4920873;29;20153;-77
2023/09/15 12:22:34;;;;;;;3.35;3.10;;;;;;;;;;4905288;29;20649;-76
2023/09/15 12:25:00;;;;;;;3.65;3.33;;;;;;;;;;4935956;29;20054;-77
2023/09/15 12:27:27;;;;;;;3.63;3.42;;;;;;;;;;4923996;28;20133;-77
2023/09/15 12:29:53;;;;;;;3.72;3.42;;;;;;;;;;4939138;28;20459;-76
2023/09/15 12:32:30;;;;;;;4.05;3.65;;;;;;;;;;4972240;28;20066;-76
2023/09/15 12:34:56;;;;;;;4.13;3.70;;;;;;;;;;4938785;28;20051;-77
2023/09/15 12:37:25;;;;;;;6.40;3.90;;;;;;;;;;4954449;28;20046;-76
2023/09/15 12:39:51;;;;;;;7.60;3.85;;;;;;;;;;4954590;28;20205;-77
2023/09/15 12:42:17;;;;;;;9.55;4.05;;;;;;;;;;4938704;28;20039;-77
2023/09/15 12:44:43;;;;;;;5.70;3.47;;;;;;;;;;4938655;28;20050;-78
2023/09/15 12:47:10;;;;;;;8.13;6.00;;;;;;;;;;4938126;28;20047;-76
2023/09/15 12:49:43;;;;;;;4.18;3.88;;;;;;;;;;4971274;28;20205;-77
2023/09/15 12:52:09;;;;;;;6.15;3.88;;;;;;;;;;4938408;28;20043;-77
2023/09/15 12:54:36;;;;;;;6.78;4.07;;;;;;;;;;4956310;28;20055;-77
2023/09/15 12:57:26;;;;;;;6.78;4.30;;;;;;;;;;4964264;28;20100;-75
2023/09/15 13:00:17;;;;;;;8.23;3.95;;;;;;;;;;4964199;28;20150;-75
2023/09/15 13:02:49;;;;;;;6.00;4.00;;;;;;;;;;4957606;28;20046;-77
2023/09/15 13:05:17;;;;;;;4.75;3.40;;;;;;;;;;4973271;28;20522;-75
2023/09/15 13:07:44;;;;;;;11.73;4.32;;;;;;;;;;4957398;28;20065;-76
2023/09/15 13:10:12;;;;;;;6.60;4.93;;;;;;;;;;4940910;28;20540;-76
2023/09/15 13:12:40;;;;;;;8.38;4.72;;;;;;;;;;4958189;28;20064;-77
2023/09/15 13:15:07;;;;;;;5.78;4.82;;;;;;;;;;4956912;28;20395;-76
2023/09/15 13:17:35;;;;;;;8.23;4.70;;;;;;;;;;4957559;28;20042;-76
2023/09/15 13:20:06;;;;;;;8.77;5.10;;;;;;;;;;4972924;28;20054;-76
2023/09/15 13:22:35;;;;;;;9.88;5.18;;;;;;;;;;4957308;28;20057;-76
2023/09/15 13:25:03;;;;;;;8.40;4.93;;;;;;;;;;4957262;28;20050;-78
2023/09/15 13:27:31;;;;;;;8.90;4.88;;;;;;;;;;4971511;28;20080;-77
2023/09/15 13:30:23;;;;;;;10.23;4.75;;;;;;;;;;4944704;28;20034;-74
2023/09/15 13:32:49;;;;;;;5.32;4.45;;;;;;;;;;4934685;28;20108;-76
2023/09/15 13:35:16;;;;;;;5.95;4.75;;;;;;;;;;4943590;28;20043;-75
2023/09/15 13:37:51;;;;;;;5.43;4.93;;;;;;;;;;4952144;28;20074;-76
2023/09/15 13:40:20;;;;;;;6.07;4.47;;;;;;;;;;4978902;28;20054;-75
2023/09/15 13:42:46;;;;;;;7.82;5.15;;;;;;;;;;4955352;28;20039;-75
2023/09/15 13:45:38;;;;;;;4.93;4.45;;;;;;;;;;4989300;28;20045;-75
2023/09/15 13:48:13;;;;;;;9.30;4.57;;;;;;;;;;4985513;28;20053;-76
2023/09/15 13:50:43;;;;;;;4.40;4.07;;;;;;;;;;4952454;28;20054;-75
2023/09/15 13:53:09;;;;;;;6.25;4.55;;;;;;;;;;4924443;28;20034;-76
2023/09/15 13:55:38;;;;;;;9.68;5.13;;;;;;;;;;4953897;28;20142;-74
2023/09/15 13:58:04;;;;;;;7.13;5.43;;;;;;;;;;4914685;28;20462;-75
2023/09/15 14:00:30;;;;;;;5.32;4.82;;;;;;;;;;4940011;28;20049;-75
2023/09/15 14:02:57;;;;;;;5.30;4.80;;;;;;;;;;4933501;28;20042;-76
2023/09/15 14:05:23;;;;;;;5.60;5.20;;;;;;;;;;4941404;28;20054;-75
2023/09/15 14:07:50;;;;;;;11.45;5.03;;;;;;;;;;4937376;28;20049;-75
2023/09/15 14:10:20;;;;;;;8.80;5.90;;;;;;;;;;4960364;28;20062;-77
2023/09/15 14:12:46;;;;;;;6.25;4.57;;;;;;;;;;4948013;28;20038;-75
2023/09/15 14:15:12;;;;;;;10.45;5.18;;;;;;;;;;4967799;28;20031;-75
2023/09/15 14:18:04;;;;;;;9.20;5.35;;;;;;;;;;4973926;28;20057;-75
2023/09/15 14:20:32;;;;;;;7.55;5.47;;;;;;;;;;4934756;28;20042;-75
2023/09/15 14:23:05;;;;;;;5.13;4.50;;;;;;;;;;4942292;28;20043;-76
2023/09/15 14:25:31;;;;;;;6.47;4.70;;;;;;;;;;4960198;28;20043;-75
2023/09/15 14:28:07;;;;;;;6.35;4.78;;;;;;;;;;4972093;28;20069;-75
2023/09/15 14:30:33;;;;;;;8.18;5.50;;;;;;;;;;4944549;28;20046;-75
2023/09/15 14:32:59;;;;;;;5.60;5.18;;;;;;;;;;4960551;28;20042;-76
2023/09/15 14:35:25;;;;;;;8.85;5.82;;;;;;;;;;4944682;28;20070;-76
2023/09/15 14:37:51;;;;;;;7.82;6.00;;;;;;;;;;4961232;28;20042;-76
2023/09/15 14:40:17;;;;;;;7.22;6.35;;;;;;;;;;4944561;28;20430;-76
2023/09/15 14:42:45;;;;;;;9.15;6.63;;;;;;;;;;4960982;28;20101;-75
2023/09/15 14:45:11;;;;;;;9.02;7.28;;;;;;;;;;4993945;28;20045;-76
2023/09/15 14:47:38;;;;;;;8.27;6.22;;;;;;;;;;4974350;28;20545;-77